Time;durP1;ratioP1;P1;durP2;ratioP2;P2;SDS_P1;SDS_P2;PMS_P1;PMS_P2;Temp;Humidity;BMP_temperature;BMP_pressure;BME280_temperature;BME280_humidity;BME280_pressure;Samples;Min_cycle;Max_cycle;Signal;HPM_P1;HPM_P2
2023/07/08 00:00:21;;;;;;;13.60;5.17;;;;;;;26.21;54.60;98852.94;6246297;23;20691;-86
2023/07/08 00:02:47;;;;;;;11.80;4.60;;;;;;;26.23;54.24;98850.94;6246214;23;20157;-85
2023/07/08 00:05:15;;;;;;;7.77;4.40;;;;;;;26.43;53.91;98848.47;6246544;23;20156;-85
2023/07/08 00:07:42;;;;;;;13.33;5.20;;;;;;;26.32;53.90;98846.25;6246258;23;20156;-85
2023/07/08 00:10:19;;;;;;;10.43;5.10;;;;;;;26.28;54.26;98842.31;6219658;23;20181;-84
2023/07/08 00:12:47;;;;;;;9.20;5.37;;;;;;;26.29;54.50;98833.19;6246358;23;20211;-86
2023/07/08 00:15:13;;;;;;;7.57;4.97;;;;;;;26.38;54.07;98837.47;6219549;23;20164;-85
2023/07/08 00:17:39;;;;;;;7.97;4.87;;;;;;;26.27;54.44;98821.81;6246246;23;20149;-85
2023/07/08 00:20:18;;;;;;;9.20;5.10;;;;;;;26.13;54.49;98808.22;6246122;23;20157;-86
2023/07/08 00:22:46;;;;;;;8.83;4.77;;;;;;;25.97;55.13;98815.63;6219560;23;20222;-87
2023/07/08 00:25:14;;;;;;;10.68;5.10;;;;;;;25.98;55.14;98807.38;6245991;23;20153;-87
2023/07/08 00:27:40;;;;;;;10.02;5.22;;;;;;;26.13;54.94;98805.53;6246408;23;20228;-86
2023/07/08 00:30:24;;;;;;;9.67;4.73;;;;;;;25.92;55.55;98810.78;6245964;23;20596;-86
2023/07/08 00:32:56;;;;;;;9.00;4.70;;;;;;;26.12;54.76;98800.31;6245984;23;20476;-86
2023/07/08 00:35:34;;;;;;;9.10;4.73;;;;;;;26.22;53.91;98800.88;6246452;23;20148;-88
2023/07/08 00:38:09;;;;;;;8.47;4.50;;;;;;;26.23;54.00;98795.31;6219630;23;20243;-85
2023/07/08 00:40:34;;;;;;;9.80;4.73;;;;;;;26.06;54.95;98795.69;6219330;23;20175;-85
2023/07/08 00:43:03;;;;;;;11.27;5.97;;;;;;;26.06;54.68;98796.53;6219421;23;20149;-87
2023/07/08 00:45:35;;;;;;;10.65;4.50;;;;;;;25.93;55.33;98796.34;6245882;23;20145;-85
2023/07/08 00:48:11;;;;;;;8.17;4.40;;;;;;;25.94;54.98;98799.88;6219315;23;20157;-87
2023/07/08 00:50:37;;;;;;;8.30;4.77;;;;;;;26.00;55.07;98791.06;6219464;23;20247;-86
2023/07/08 00:53:35;;;;;;;8.43;4.63;;;;;;;25.97;55.26;98797.63;6219509;23;20176;-86
2023/07/08 00:56:09;;;;;;;10.23;4.63;;;;;;;25.89;55.52;98795.03;6220539;23;20516;-85
2023/07/08 00:59:10;;;;;;;8.80;4.50;;;;;;;25.95;55.34;98797.00;6246200;23;20145;-86
2023/07/08 01:01:42;;;;;;;6.87;4.10;;;;;;;25.83;55.46;98795.81;6220216;23;20600;-88
2023/07/08 01:04:18;;;;;;;8.50;4.40;;;;;;;25.96;55.25;98785.25;6245902;23;20138;-86
2023/07/08 01:06:47;;;;;;;9.07;4.87;;;;;;;25.93;55.65;98796.34;6219530;23;20561;-86
2023/07/08 01:09:15;;;;;;;9.30;4.87;;;;;;;25.96;55.28;98785.25;6245864;23;20145;-86
2023/07/08 01:11:40;;;;;;;9.07;5.23;;;;;;;25.91;55.27;98787.66;6245732;23;20501;-86
2023/07/08 01:14:12;;;;;;;8.73;4.63;;;;;;;25.95;55.04;98793.47;6245852;23;20637;-86
2023/07/08 01:16:38;;;;;;;8.50;4.60;;;;;;;25.95;55.32;98798.84;6219209;23;20150;-86
2023/07/08 01:19:09;;;;;;;8.13;4.93;;;;;;;26.10;54.75;98794.31;6247744;23;20569;-86
2023/07/08 01:21:42;;;;;;;7.67;4.70;;;;;;;25.97;55.56;98808.38;6247731;23;20140;-86
2023/07/08 01:24:10;;;;;;;8.53;5.27;;;;;;;26.07;55.12;98803.53;6247996;23;20237;-87
2023/07/08 01:26:41;;;;;;;9.73;4.87;;;;;;;26.01;55.20;98812.38;6247808;23;20145;-87
2023/07/08 01:29:07;;;;;;;9.73;5.20;;;;;;;26.02;55.01;98814.03;6247842;23;20134;-86
2023/07/08 01:31:34;;;;;;;7.10;4.17;;;;;;;25.89;55.48;98821.91;6220992;23;20216;-87
2023/07/08 01:33:59;;;;;;;7.57;4.43;;;;;;;25.78;56.03;98814.31;6247729;23;20228;-87
2023/07/08 01:36:26;;;;;;;7.60;4.53;;;;;;;25.76;56.30;98819.03;6248035;23;20180;-87
2023/07/08 01:38:51;;;;;;;12.60;4.18;;;;;;;25.53;56.73;98815.56;6247549;23;20153;-86
2023/07/08 01:41:17;;;;;;;9.10;4.73;;;;;;;25.46;57.43;98820.00;6248030;23;20133;-87
2023/07/08 01:43:43;;;;;;;9.30;4.97;;;;;;;25.48;58.80;98817.97;6247667;23;20220;-86
2023/07/08 01:46:20;;;;;;;12.45;5.15;;;;;;;25.55;60.01;98818.94;6221071;23;20506;-86
2023/07/08 01:48:51;;;;;;;10.50;4.77;;;;;;;25.43;60.13;98818.50;6247888;23;20195;-86
2023/07/08 01:51:16;;;;;;;8.93;4.53;;;;;;;25.33;61.11;98814.41;6221109;23;20181;-86
2023/07/08 01:53:43;;;;;;;7.20;4.53;;;;;;;25.25;61.26;98828.72;6221109;23;20239;-88
2023/07/08 01:56:12;;;;;;;8.27;4.37;;;;;;;25.20;61.68;98830.28;6221502;23;20157;-86
2023/07/08 01:58:37;;;;;;;8.93;4.63;;;;;;;25.37;60.76;98842.53;6247274;23;20153;-86
2023/07/08 02:01:04;;;;;;;14.63;5.33;;;;;;;25.20;60.50;98844.53;6247466;23;20248;-86
2023/07/08 02:03:29;;;;;;;11.27;5.23;;;;;;;25.17;61.31;98849.41;6247860;23;20228;-86
2023/07/08 02:05:55;;;;;;;10.07;4.27;;;;;;;25.30;60.40;98853.16;6247698;23;20521;-86
2023/07/08 02:08:21;;;;;;;7.53;4.50;;;;;;;25.49;59.70;98859.91;6247309;23;20239;-86
2023/07/08 02:10:51;;;;;;;9.20;4.73;;;;;;;25.34;59.95;98850.97;6247317;23;20173;-86
2023/07/08 02:13:16;;;;;;;6.87;4.37;;;;;;;25.39;60.00;98859.31;6247226;23;20155;-86
2023/07/08 02:15:41;;;;;;;8.63;4.47;;;;;;;25.20;59.91;98854.44;6247305;23;20564;-86
2023/07/08 02:18:07;;;;;;;8.60;4.77;;;;;;;25.12;60.24;98855.34;6220833;23;20187;-86
2023/07/08 02:20:32;;;;;;;9.13;4.67;;;;;;;24.94;60.07;98842.22;6247244;23;20145;-88
2023/07/08 02:22:58;;;;;;;9.97;4.67;;;;;;;25.09;59.71;98853.00;6247076;23;20592;-86
2023/07/08 02:25:23;;;;;;;8.83;4.50;;;;;;;24.88;60.32;98850.97;6247280;23;20145;-87
2023/07/08 02:27:48;;;;;;;7.83;4.30;;;;;;;25.16;59.70;98861.19;6247471;23;20149;-86
2023/07/08 02:30:14;;;;;;;9.37;4.17;;;;;;;25.33;59.60;98863.53;6247132;23;20160;-86
2023/07/08 02:32:39;;;;;;;11.00;5.93;;;;;;;25.48;60.27;98860.91;6247508;23;20565;-86
2023/07/08 02:35:07;;;;;;;9.23;4.97;;;;;;;25.45;60.59;98866.63;6247172;23;20156;-86
2023/07/08 02:37:32;;;;;;;11.07;6.23;;;;;;;25.39;61.23;98872.72;6247785;23;20160;-86
2023/07/08 02:39:58;;;;;;;10.67;5.60;;;;;;;25.45;61.08;98878.19;6246816;23;20527;-85
2023/07/08 02:42:23;;;;;;;6.73;4.87;;;;;;;25.49;60.88;98865.28;6247024;23;20215;-86
2023/07/08 02:44:49;;;;;;;9.80;5.03;;;;;;;25.49;61.12;98870.66;6220546;23;20153;-86
2023/07/08 02:47:14;;;;;;;7.60;4.80;;;;;;;25.55;60.28;98878.00;6247044;23;20149;-86
2023/07/08 02:49:39;;;;;;;8.93;4.83;;;;;;;25.47;60.24;98867.31;6247401;23;20160;-86
2023/07/08 02:52:05;;;;;;;8.20;5.07;;;;;;;25.26;60.15;98869.81;6220376;23;20181;-86
2023/07/08 02:54:30;;;;;;;7.80;4.67;;;;;;;25.29;60.14;98864.91;6246971;23;20628;-85
2023/07/08 02:56:56;;;;;;;8.70;4.83;;;;;;;25.31;59.91;98875.47;6246864;23;20246;-86
2023/07/08 02:59:21;;;;;;;7.10;4.33;;;;;;;25.00;60.24;98878.19;6246920;23;20163;-86
2023/07/08 03:01:47;;;;;;;8.03;4.40;;;;;;;25.01;59.83;98883.41;6220464;23;20160;-86
2023/07/08 03:04:12;;;;;;;9.37;5.07;;;;;;;24.94;59.58;98879.78;6246875;23;20157;-87
2023/07/08 03:06:45;;;;;;;9.83;5.23;;;;;;;24.93;59.44;98883.47;6246799;23;20153;-86
2023/07/08 03:09:12;;;;;;;9.83;4.70;;;;;;;24.98;59.82;98886.44;6246821;23;20152;-85
2023/07/08 03:11:38;;;;;;;15.90;5.13;;;;;;;24.92;59.37;98892.50;6220255;23;20244;-86
2023/07/08 03:14:05;;;;;;;6.93;4.33;;;;;;;25.11;58.99;98885.84;6246707;23;20216;-86
2023/07/08 03:16:30;;;;;;;7.97;3.70;;;;;;;25.18;58.38;98896.69;6246775;23;20214;-87
2023/07/08 03:18:56;;;;;;;9.53;5.17;;;;;;;25.05;58.73;98891.94;6246681;23;20152;-86
2023/07/08 03:21:21;;;;;;;10.53;4.77;;;;;;;24.89;59.20;98903.59;6246627;23;20148;-86
2023/07/08 03:23:51;;;;;;;7.80;4.73;;;;;;;25.10;59.08;98897.59;6220256;23;20153;-86
2023/07/08 03:26:20;;;;;;;9.90;5.00;;;;;;;25.14;58.63;98898.06;6246910;23;20180;-87
2023/07/08 03:28:46;;;;;;;9.37;4.83;;;;;;;25.12;58.87;98902.78;6220160;23;20165;-87
2023/07/08 03:31:12;;;;;;;9.13;4.57;;;;;;;25.22;58.75;98904.22;6246886;23;20200;-86
2023/07/08 03:33:38;;;;;;;8.07;4.20;;;;;;;24.93;59.33;98904.91;6219959;23;20460;-86
2023/07/08 03:36:09;;;;;;;8.37;4.80;;;;;;;25.02;59.68;98901.19;6246973;23;20565;-86
2023/07/08 03:38:35;;;;;;;7.90;4.60;;;;;;;24.92;59.82;98903.22;6246595;23;20545;-86
2023/07/08 03:41:00;;;;;;;8.73;4.60;;;;;;;24.99;60.08;98906.88;6219748;23;20201;-86
2023/07/08 03:43:26;;;;;;;9.57;5.40;;;;;;;25.00;59.68;98905.00;6246550;23;20159;-86
2023/07/08 03:45:51;;;;;;;8.73;5.30;;;;;;;24.80;59.70;98907.34;6247173;23;20149;-86
2023/07/08 03:48:17;;;;;;;10.57;6.10;;;;;;;24.63;60.45;98903.06;6246442;23;20145;-86
2023/07/08 03:50:42;;;;;;;10.57;5.27;;;;;;;24.81;60.10;98911.69;6246319;23;20201;-87
2023/07/08 03:53:08;;;;;;;10.73;5.93;;;;;;;24.69;60.21;98921.09;6219947;23;20164;-86
2023/07/08 03:55:34;;;;;;;9.60;5.57;;;;;;;24.39;61.14;98919.22;6246326;23;20593;-86
2023/07/08 03:57:59;;;;;;;11.57;6.30;;;;;;;24.44;61.38;98925.75;6246683;23;20145;-86
2023/07/08 04:00:25;;;;;;;9.07;5.33;;;;;;;24.63;60.62;98912.94;6246485;23;20230;-86
2023/07/08 04:02:50;;;;;;;8.47;5.60;;;;;;;24.85;59.42;98914.84;6219840;23;20159;-86
2023/07/08 04:05:17;;;;;;;10.97;6.60;;;;;;;24.58;60.71;98910.75;6246280;23;20145;-86
2023/07/08 04:07:43;;;;;;;13.40;6.67;;;;;;;24.30;61.75;98910.38;6246540;23;20149;-86
2023/07/08 04:10:12;;;;;;;9.67;6.33;;;;;;;24.41;61.65;98917.19;6219580;23;20250;-86
2023/07/08 04:12:38;;;;;;;11.87;7.13;;;;;;;24.64;60.38;98922.63;6246546;23;20207;-86
2023/07/08 04:15:04;;;;;;;8.43;5.93;;;;;;;24.54;61.13;98920.16;6219526;23;20152;-86
2023/07/08 04:17:30;;;;;;;9.80;6.33;;;;;;;24.61;61.16;98918.44;6219669;23;20235;-85
2023/07/08 04:20:06;;;;;;;14.03;6.93;;;;;;;24.70;60.39;98908.53;6246468;23;20180;-85
2023/07/08 04:22:31;;;;;;;10.40;6.10;;;;;;;24.73;60.90;98916.22;6246195;23;20143;-85
2023/07/08 04:24:57;;;;;;;13.07;7.03;;;;;;;24.80;60.10;98915.38;6246488;23;20224;-85
2023/07/08 04:27:22;;;;;;;13.53;7.53;;;;;;;24.83;60.52;98914.19;6246462;23;20145;-85
2023/07/08 04:29:48;;;;;;;14.30;7.70;;;;;;;24.83;60.33;98915.03;6246801;23;20145;-86
2023/07/08 04:32:13;;;;;;;15.57;7.10;;;;;;;24.76;60.55;98913.19;6246507;23;20188;-85
2023/07/08 04:34:39;;;;;;;12.33;7.00;;;;;;;24.73;61.05;98908.19;6246087;23;20159;-85
2023/07/08 04:37:04;;;;;;;14.37;7.57;;;;;;;24.92;59.65;98900.53;6246393;23;20650;-86
2023/07/08 04:39:30;;;;;;;11.43;7.13;;;;;;;24.86;60.63;98903.97;6219324;23;20247;-85
2023/07/08 04:41:56;;;;;;;11.57;7.17;;;;;;;25.12;60.06;98892.03;6245990;23;20146;-85
2023/07/08 04:44:22;;;;;;;13.05;7.40;;;;;;;25.23;59.60;98899.69;6219545;23;20161;-85
2023/07/08 04:46:58;;;;;;;10.25;6.85;;;;;;;25.12;59.49;98900.94;6219508;23;20287;-86
2023/07/08 04:49:24;;;;;;;11.80;6.93;;;;;;;25.44;58.82;98891.81;6246634;23;20568;-85
2023/07/08 04:51:54;;;;;;;11.40;6.93;;;;;;;25.42;58.73;98896.53;6245369;23;20200;-86
2023/07/08 04:54:19;;;;;;;9.77;6.87;;;;;;;25.42;58.81;98883.09;6245966;23;20210;-87
2023/07/08 04:56:48;;;;;;;12.00;6.78;;;;;;;25.37;58.68;98880.09;6246004;23;20153;-86
2023/07/08 04:59:16;;;;;;;9.83;6.70;;;;;;;25.42;58.63;98875.06;6245882;23;20145;-87
2023/07/08 05:01:42;;;;;;;12.18;6.93;;;;;;;25.48;59.11;98871.66;6245884;23;20145;-86
2023/07/08 05:04:09;;;;;;;10.90;7.60;;;;;;;25.51;57.53;98871.28;6245918;23;20214;-87
2023/07/08 05:06:35;;;;;;;12.97;7.30;;;;;;;25.61;57.53;98861.13;6245853;23;20470;-86
2023/07/08 05:09:02;;;;;;;10.27;6.57;;;;;;;25.79;56.84;98866.16;6245908;23;20149;-86
2023/07/08 05:11:28;;;;;;;14.93;6.90;;;;;;;25.75;57.32;98871.06;6246229;23;20177;-85
2023/07/08 05:13:54;;;;;;;10.68;6.70;;;;;;;25.96;56.11;98875.72;6245954;23;20155;-85
2023/07/08 05:16:19;;;;;;;12.27;6.90;;;;;;;25.95;55.94;98899.06;6219163;23;20235;-86
2023/07/08 05:18:45;;;;;;;12.88;7.28;;;;;;;25.90;57.08;98898.78;6246193;23;20173;-86
2023/07/08 05:21:11;;;;;;;14.30;7.28;;;;;;;25.76;56.09;98921.06;6245793;23;20141;-86
2023/07/08 05:23:36;;;;;;;14.87;6.97;;;;;;;25.78;55.87;98924.41;6219342;23;20153;-86
2023/07/08 05:26:04;;;;;;;13.07;7.15;;;;;;;25.87;56.32;98925.16;6245799;23;20149;-87
2023/07/08 05:28:29;;;;;;;11.30;7.50;;;;;;;25.69;56.49;98933.53;6245774;23;20575;-87
2023/07/08 05:30:55;;;;;;;12.17;7.50;;;;;;;25.63;56.78;98945.00;6219270;23;20191;-87
2023/07/08 05:33:25;;;;;;;14.07;8.40;;;;;;;25.72;57.46;98943.94;6245729;23;20534;-87
2023/07/08 05:35:51;;;;;;;11.60;6.72;;;;;;;25.70;56.26;98937.91;6245786;23;20170;-86
2023/07/08 05:38:16;;;;;;;13.77;7.57;;;;;;;25.87;56.36;98943.94;6246067;23;20171;-86
2023/07/08 05:40:42;;;;;;;13.40;7.13;;;;;;;25.71;56.08;98944.94;6219178;23;20603;-86
2023/07/08 05:43:07;;;;;;;11.75;7.10;;;;;;;25.89;56.82;98945.44;6245645;23;20287;-86
2023/07/08 05:45:35;;;;;;;9.35;6.68;;;;;;;25.94;55.87;98947.59;6219257;23;20167;-86
2023/07/08 05:48:01;;;;;;;10.27;7.07;;;;;;;25.85;56.23;98954.88;6219042;23;20149;-86
2023/07/08 05:50:27;;;;;;;11.77;7.53;;;;;;;25.83;57.09;98943.50;6245960;23;20225;-85
2023/07/08 05:52:52;;;;;;;11.70;7.20;;;;;;;25.97;56.10;98945.34;6246011;23;20528;-86
2023/07/08 05:55:17;;;;;;;10.05;7.10;;;;;;;26.22;56.64;98946.81;6245632;23;20228;-85
2023/07/08 05:57:43;;;;;;;9.73;6.63;;;;;;;26.56;56.33;98943.56;6245661;23;20210;-85
2023/07/08 06:00:10;;;;;;;12.32;7.78;;;;;;;26.80;54.89;98946.00;6245984;23;20210;-85
2023/07/08 06:02:36;;;;;;;12.07;7.75;;;;;;;26.79;54.30;98949.69;6219194;23;20165;-87
2023/07/08 06:05:02;;;;;;;12.50;7.35;;;;;;;26.71;54.26;98946.25;6220730;23;20584;-86
2023/07/08 06:07:27;;;;;;;13.40;7.88;;;;;;;26.97;54.98;98943.06;6220938;23;20149;-88
2023/07/08 06:09:55;;;;;;;13.27;7.20;;;;;;;27.04;55.48;98952.91;6247748;23;20145;-86
2023/07/08 06:12:21;;;;;;;13.05;7.72;;;;;;;27.20;54.30;98951.84;6247610;23;20604;-87
2023/07/08 06:14:46;;;;;;;10.93;7.35;;;;;;;27.18;53.82;98945.78;6220797;23;20153;-85
2023/07/08 06:17:12;;;;;;;11.40;7.03;;;;;;;27.51;53.37;98954.25;6247338;23;20172;-86
2023/07/08 06:19:37;;;;;;;11.30;7.65;;;;;;;27.74;52.44;98954.88;6247329;23;20156;-86
2023/07/08 06:22:03;;;;;;;9.88;6.80;;;;;;;27.85;52.00;98959.75;6220890;23;20149;-86
2023/07/08 06:24:28;;;;;;;10.68;7.05;;;;;;;27.92;52.78;98963.31;6247190;23;20214;-86
2023/07/08 06:26:54;;;;;;;10.00;7.03;;;;;;;28.05;51.95;98963.44;6247202;23;20565;-86
2023/07/08 06:29:19;;;;;;;11.52;7.00;;;;;;;28.39;52.39;98952.69;6247868;23;20149;-85
2023/07/08 06:31:44;;;;;;;9.82;6.35;;;;;;;28.63;50.51;98954.94;6247095;23;20173;-86
2023/07/08 06:34:10;;;;;;;10.88;7.22;;;;;;;28.58;51.74;98959.22;6220937;23;20153;-85
2023/07/08 06:36:36;;;;;;;9.02;6.10;;;;;;;29.00;50.29;98955.50;6247166;23;20149;-87
2023/07/08 06:39:01;;;;;;;12.73;7.40;;;;;;;29.27;48.56;98959.16;6220450;23;20175;-86
2023/07/08 06:41:26;;;;;;;12.77;7.20;;;;;;;29.30;48.83;98951.47;6220491;23;20145;-86
2023/07/08 06:43:53;;;;;;;10.65;6.45;;;;;;;29.42;48.61;98960.63;6247028;23;20145;-86
2023/07/08 06:46:20;;;;;;;9.15;5.97;;;;;;;29.64;48.40;98967.50;6246990;23;20180;-87
2023/07/08 06:48:45;;;;;;;11.90;6.82;;;;;;;29.91;46.93;98963.00;6247421;23;20553;-87
2023/07/08 06:51:11;;;;;;;10.65;6.25;;;;;;;30.08;47.22;98968.81;6247264;23;20616;-87
2023/07/08 06:53:36;;;;;;;9.38;5.93;;;;;;;29.96;46.34;98976.72;6247315;23;20153;-87
2023/07/08 06:56:02;;;;;;;16.67;6.63;;;;;;;30.12;46.77;98976.28;6247368;23;20153;-87
2023/07/08 06:58:28;;;;;;;9.65;6.68;;;;;;;30.21;46.94;98976.91;6220473;23;20507;-86
2023/07/08 07:00:53;;;;;;;9.50;5.47;;;;;;;30.60;48.11;98976.88;6220379;23;20149;-88
2023/07/08 07:03:18;;;;;;;9.20;5.95;;;;;;;30.86;44.73;98979.50;6246880;23;20216;-88
2023/07/08 07:05:44;;;;;;;11.90;5.57;;;;;;;30.74;44.83;98978.47;6220326;23;20181;-87
2023/07/08 07:08:10;;;;;;;8.30;5.68;;;;;;;30.93;45.39;98982.19;6220318;23;20223;-87
2023/07/08 07:10:35;;;;;;;9.73;6.30;;;;;;;30.91;46.04;98981.59;6246747;23;20503;-88
2023/07/08 07:13:01;;;;;;;8.57;6.10;;;;;;;30.98;43.98;98983.22;6220204;23;20219;-87
2023/07/08 07:15:26;;;;;;;9.38;5.05;;;;;;;31.10;44.39;98987.97;6246764;23;20153;-87
2023/07/08 07:17:52;;;;;;;8.65;5.22;;;;;;;31.37;43.71;98982.19;6246681;23;20627;-87
2023/07/08 07:20:18;;;;;;;10.32;5.18;;;;;;;31.69;44.87;98982.22;6220550;23;20176;-87
2023/07/08 07:22:43;;;;;;;8.38;5.40;;;;;;;31.75;43.68;98975.94;6220043;23;20149;-88
2023/07/08 07:25:09;;;;;;;6.88;4.57;;;;;;;31.67;42.43;98985.16;6220235;23;20157;-87
2023/07/08 07:27:34;;;;;;;8.60;5.13;;;;;;;31.60;43.43;98970.84;6247326;23;20243;-88
2023/07/08 07:29:59;;;;;;;7.30;5.15;;;;;;;31.62;42.94;98971.44;6220096;23;20163;-89
2023/07/08 07:32:26;;;;;;;7.88;4.72;;;;;;;31.75;42.21;98976.75;6246865;23;20177;-87
2023/07/08 07:34:52;;;;;;;8.35;4.85;;;;;;;31.97;43.43;98977.22;6246552;23;20169;-88
2023/07/08 07:37:20;;;;;;;7.03;4.30;;;;;;;32.00;41.30;98976.78;6219925;23;20615;-88
2023/07/08 07:39:45;;;;;;;9.18;4.45;;;;;;;32.21;41.31;98979.94;6220049;23;20173;-88
2023/07/08 07:42:11;;;;;;;7.57;4.75;;;;;;;32.18;41.28;98974.16;6246775;23;20203;-87
2023/07/08 07:44:39;;;;;;;9.00;5.18;;;;;;;32.33;41.29;98971.06;6246523;23;20231;-88
2023/07/08 07:47:06;;;;;;;8.00;4.70;;;;;;;32.25;41.63;98982.22;6220463;23;20156;-87
2023/07/08 07:49:31;;;;;;;9.63;4.30;;;;;;;32.20;40.81;98980.19;6219835;23;20475;-88
2023/07/08 07:51:57;;;;;;;7.32;4.20;;;;;;;32.42;41.87;98977.84;6246340;23;20597;-86
2023/07/08 07:54:23;;;;;;;6.85;3.80;;;;;;;32.67;39.61;98979.50;6220274;23;20193;-86
2023/07/08 07:56:48;;;;;;;6.35;4.18;;;;;;;32.58;40.49;98980.00;6219829;23;20558;-85
2023/07/08 07:59:14;;;;;;;7.38;4.32;;;;;;;32.31;39.16;98984.03;6219838;23;20586;-86
2023/07/08 08:01:41;;;;;;;7.25;4.50;;;;;;;32.43;39.98;98988.50;6247216;23;20151;-86
2023/07/08 08:04:08;;;;;;;8.38;4.28;;;;;;;32.75;40.16;98991.94;6220150;23;20152;-86
2023/07/08 08:06:33;;;;;;;12.18;4.22;;;;;;;32.55;38.30;98992.16;6219784;23;20157;-85
2023/07/08 08:08:59;;;;;;;6.45;3.95;;;;;;;32.60;38.74;98994.22;6220864;23;20157;-86
2023/07/08 08:11:25;;;;;;;7.80;4.25;;;;;;;32.74;39.00;98995.72;6246111;23;20667;-86
2023/07/08 08:13:51;;;;;;;9.82;4.65;;;;;;;32.77;39.30;98992.56;6246175;23;20510;-86
2023/07/08 08:16:17;;;;;;;6.40;4.45;;;;;;;32.67;39.07;98989.53;6246148;23;20145;-86
2023/07/08 08:18:42;;;;;;;8.55;4.45;;;;;;;33.04;39.59;98991.22;6221092;23;20235;-86
2023/07/08 08:21:07;;;;;;;8.13;4.78;;;;;;;33.11;37.84;98975.66;6246512;23;20220;-87
2023/07/08 08:23:33;;;;;;;8.68;4.63;;;;;;;33.29;38.19;98983.78;6219670;23;20196;-86
2023/07/08 08:25:58;;;;;;;7.13;3.97;;;;;;;33.47;38.32;98980.16;6220523;23;20172;-88
2023/07/08 08:28:24;;;;;;;7.93;4.15;;;;;;;33.45;38.30;98981.47;6219539;23;20153;-89
2023/07/08 08:30:50;;;;;;;7.63;4.20;;;;;;;33.61;38.55;98980.84;6219882;23;20195;-89
2023/07/08 08:33:16;;;;;;;8.60;4.38;;;;;;;33.80;37.59;98977.81;6219540;23;20149;-89
2023/07/08 08:35:43;;;;;;;6.45;4.35;;;;;;;33.92;37.51;98977.84;6219504;23;20489;-89
2023/07/08 08:38:08;;;;;;;6.82;4.68;;;;;;;33.93;38.23;98971.34;6246385;23;20227;-89
2023/07/08 08:40:34;;;;;;;8.38;4.35;;;;;;;34.17;37.63;98974.94;6219718;23;20553;-89
2023/07/08 08:43:04;;;;;;;12.35;3.88;;;;;;;34.21;37.86;98976.94;6220928;23;20584;-88
2023/07/08 08:45:39;;;;;;;6.53;4.05;;;;;;;34.08;37.67;98987.22;6219974;23;20177;-89
2023/07/08 08:48:09;;;;;;;7.97;4.05;;;;;;;33.99;36.80;98987.53;6219457;23;20558;-87
2023/07/08 08:50:47;;;;;;;5.78;3.75;;;;;;;33.77;38.16;98993.78;6246868;23;20212;-86
2023/07/08 08:53:16;;;;;;;6.18;3.75;;;;;;;33.38;39.82;98996.00;6246729;23;20153;-86
2023/07/08 08:55:42;;;;;;;11.45;3.90;;;;;;;33.25;41.83;98992.63;6219304;23;20163;-86
2023/07/08 08:58:39;;;;;;;7.00;4.03;;;;;;;32.96;41.90;98996.09;6219415;23;20153;-85
2023/07/08 09:01:11;;;;;;;6.93;3.85;;;;;;;32.83;43.88;99005.22;6224104;23;20189;-86
2023/07/08 09:03:43;;;;;;;5.07;3.33;;;;;;;32.55;43.46;99002.16;6219951;23;20478;-86
2023/07/08 09:06:12;;;;;;;7.50;3.83;;;;;;;32.26;44.35;98987.41;6245967;23;20548;-86
2023/07/08 09:08:38;;;;;;;6.90;3.85;;;;;;;31.98;44.88;98987.00;6219926;23;20175;-86
2023/07/08 09:11:26;;;;;;;10.70;4.47;;;;;;;31.86;46.88;98986.91;6246159;23;20604;-86
2023/07/08 09:13:52;;;;;;;16.65;5.22;;;;;;;31.74;48.12;98987.81;6246005;23;20147;-86
2023/07/08 09:16:37;;;;;;;17.05;5.13;;;;;;;31.68;48.53;98980.56;6219847;23;20157;-85
2023/07/08 09:19:22;;;;;;;12.70;5.70;;;;;;;31.60;49.76;98987.09;6245873;23;20149;-86
2023/07/08 09:22:00;;;;;;;11.75;5.28;;;;;;;31.33;52.29;98988.25;6246502;23;20548;-85
2023/07/08 09:24:50;;;;;;;10.07;5.25;;;;;;;30.99;51.88;98982.19;6219474;23;20164;-86
2023/07/08 09:27:15;;;;;;;10.18;4.88;;;;;;;30.46;53.58;98977.09;6246492;23;20137;-88
2023/07/08 09:29:41;;;;;;;7.75;4.80;;;;;;;30.10;53.21;98970.28;6246175;23;20149;-88
2023/07/08 09:32:21;;;;;;;10.65;5.05;;;;;;;30.13;54.71;98988.78;6219173;23;20185;-88
2023/07/08 09:34:51;;;;;;;9.68;4.78;;;;;;;29.73;53.43;98987.06;6245871;23;20136;-88
2023/07/08 09:37:26;;;;;;;8.13;4.07;;;;;;;29.00;55.57;98998.69;6219315;23;20157;-89
2023/07/08 09:39:54;;;;;;;8.48;4.28;;;;;;;28.79;56.46;99033.88;6247936;23;20180;-84
2023/07/08 09:42:21;;;;;;;14.20;4.85;;;;;;;28.57;59.80;99038.47;6247902;23;20141;-86
2023/07/08 09:44:47;;;;;;;7.88;3.75;;;;;;;28.16;60.15;99027.59;6247580;23;20599;-86
2023/07/08 09:47:28;;;;;;;10.57;3.10;;;;;;;27.88;60.54;99038.28;6247585;23;20224;-86
2023/07/08 09:49:53;;;;;;;8.32;3.40;;;;;;;27.49;62.79;99037.09;6221107;23;20145;-86
2023/07/08 09:52:19;;;;;;;4.43;2.58;;;;;;;27.06;62.81;99053.09;6247952;23;20181;-86
2023/07/08 09:54:45;;;;;;;5.47;2.75;;;;;;;26.98;62.78;99076.56;6248244;23;20210;-86
2023/07/08 09:57:17;;;;;;;6.55;3.53;;;;;;;26.68;64.67;99054.16;6220954;23;20565;-85
2023/07/08 09:59:47;;;;;;;14.57;4.38;;;;;;;26.26;67.78;99037.84;6221514;23;20145;-86
2023/07/08 10:02:35;;;;;;;7.50;4.40;;;;;;;26.12;69.30;99021.50;6247179;23;20149;-86
2023/07/08 10:05:11;;;;;;;11.82;4.93;;;;;;;26.29;69.37;99024.00;6196513;23;20157;-86
2023/07/08 10:07:37;;;;;;;9.75;5.07;;;;;;;26.53;67.88;99021.06;6220780;23;20142;-86
2023/07/08 10:10:09;;;;;;;10.25;4.93;;;;;;;26.69;68.49;99012.81;6247303;23;20159;-86
2023/07/08 10:12:39;;;;;;;8.90;5.22;;;;;;;26.74;69.59;99013.09;6247251;23;20165;-86
2023/07/08 10:15:25;;;;;;;11.43;4.95;;;;;;;26.79;70.48;98995.41;6247333;23;20260;-86
2023/07/08 10:17:50;;;;;;;8.57;4.40;;;;;;;27.03;70.06;98996.97;6222032;23;20231;-86
2023/07/08 10:20:15;;;;;;;7.97;4.85;;;;;;;27.27;68.51;98993.94;6247339;23;20532;-86
2023/07/08 10:22:46;;;;;;;8.18;4.53;;;;;;;27.50;66.41;98995.66;6247165;23;20146;-87
2023/07/08 10:25:27;;;;;;;10.00;4.88;;;;;;;27.56;66.94;98992.19;6220820;23;20141;-87
2023/07/08 10:28:20;;;;;;;10.57;5.13;;;;;;;27.70;67.83;98994.00;6248326;23;20195;-87
2023/07/08 10:31:05;;;;;;;8.75;4.85;;;;;;;27.85;67.86;98984.81;6247857;23;20484;-87
2023/07/08 10:33:52;;;;;;;8.93;4.90;;;;;;;27.92;68.19;98985.69;6220824;23;20167;-87
2023/07/08 10:36:51;;;;;;;13.25;5.22;;;;;;;28.07;66.11;98998.31;6247428;23;20212;-86
2023/07/08 10:39:39;;;;;;;8.88;4.88;;;;;;;27.97;66.63;98993.19;6247023;23;20188;-86
2023/07/08 10:42:42;;;;;;;5.97;3.40;;;;;;;28.00;66.82;98982.88;6220724;23;20144;-86
2023/07/08 10:45:13;;;;;;;8.02;4.20;;;;;;;28.07;66.35;98996.41;6220555;23;20636;-86
2023/07/08 10:48:09;;;;;;;11.43;4.22;;;;;;;28.04;67.52;98988.72;6247716;23;20145;-86
2023/07/08 10:50:47;;;;;;;8.18;4.22;;;;;;;28.01;67.32;98979.16;6219873;23;20228;-86
2023/07/08 10:53:37;;;;;;;6.93;3.97;;;;;;;28.04;68.33;98983.31;6220346;23;20156;-86
2023/07/08 10:56:15;;;;;;;9.18;4.38;;;;;;;28.16;67.83;98976.38;6246982;23;20173;-87
2023/07/08 10:59:05;;;;;;;7.38;4.50;;;;;;;28.25;69.97;98969.00;6220520;23;20156;-87
2023/07/08 11:01:58;;;;;;;8.32;4.97;;;;;;;28.17;67.96;98955.66;6220499;23;20222;-87
2023/07/08 11:05:00;;;;;;;5.72;3.60;;;;;;;28.33;69.78;98950.78;6247292;23;20283;-87
2023/07/08 11:07:40;;;;;;;5.28;3.17;;;;;;;28.09;60.32;98935.09;6220289;23;20152;-87
2023/07/08 11:10:26;;;;;;;5.68;3.08;;;;;;;28.31;63.17;98925.88;6247233;23;20224;-87
2023/07/08 11:13:01;;;;;;;6.95;3.33;;;;;;;28.67;63.68;98924.88;6221174;23;20154;-88
2023/07/08 11:15:30;;;;;;;4.82;3.03;;;;;;;29.03;64.37;98925.41;6246760;23;20133;-88
2023/07/08 11:18:34;;;;;;;5.10;3.10;;;;;;;29.24;64.72;98925.28;6246726;23;20283;-88
2023/07/08 11:21:05;;;;;;;4.85;2.72;;;;;;;29.07;57.20;98921.25;6125597;23;20155;-89
2023/07/08 11:23:45;;;;;;;5.57;3.00;;;;;;;29.22;61.61;98930.03;6204870;23;20152;-89
2023/07/08 11:26:17;;;;;;;8.68;3.10;;;;;;;29.41;58.92;98928.41;6246759;23;20137;-90
2023/07/08 11:28:43;;;;;;;5.93;3.22;;;;;;;29.96;61.69;98933.47;6220154;23;20561;-90
2023/07/08 11:31:10;;;;;;;4.03;2.50;;;;;;;30.14;58.44;98943.63;6220800;23;20177;-90
2023/07/08 11:33:37;;;;;;;3.70;2.10;;;;;;;30.45;57.58;98943.84;6220676;23;20157;-90
2023/07/08 11:36:04;;;;;;;4.07;2.30;;;;;;;30.50;57.74;98935.06;6246590;23;20562;-92
2023/07/08 11:38:33;;;;;;;5.05;2.50;;;;;;;30.72;58.37;98929.16;6246607;23;20206;-91